RYR572J LIRP-EPWR
Flight info
| Callsign | RYR572J |
|---|---|
| Flight time | N/A |
| Altitude | 36000 |
| Route | GINAR DCT OSMOX DCT LOMED DCT TIPNI DCT MALUG/N0448F370 DCT NEMAL DCT MEDEL DCT APRAQ DCT LEGAZ DCT LAGAR DCT DINOV |
| Aircraft | A320/M-SDE3FGHIRWY/LB1 |
Departure
| Time | N/A |
|---|---|
| Airport | Pisa International Airport (LIRP) |
Arrival
| Time | 2026-05-08 18:22 |
|---|---|
| Airport | Copernicus Wrocław Airport (EPWR) |
| Time | Latitude | Longitude | Altitude | Speed | Heading |
|---|---|---|---|---|---|
| 2026-05-08 17:46 | 48.70981 | 13.82493 | 37109 ft | 473 kts | 7° |
| 2026-05-08 17:46 | 48.74205 | 13.83499 | 37106 ft | 473 kts | 7° |
| 2026-05-08 17:46 | 48.80660 | 13.85509 | 37110 ft | 473 kts | 7° |
| 2026-05-08 17:47 | 48.87109 | 13.87528 | 37116 ft | 473 kts | 7° |
| 2026-05-08 17:47 | 48.92473 | 13.89212 | 37131 ft | 473 kts | 7° |
| 2026-05-08 17:48 | 48.98907 | 13.91228 | 37128 ft | 472 kts | 7° |
| 2026-05-08 17:48 | 49.05331 | 13.93250 | 37129 ft | 472 kts | 7° |
| 2026-05-08 17:49 | 49.11775 | 13.95287 | 37132 ft | 472 kts | 7° |
| 2026-05-08 17:49 | 49.18193 | 13.97321 | 37142 ft | 471 kts | 8° |
| 2026-05-08 17:50 | 49.24606 | 13.99353 | 37143 ft | 470 kts | 8° |
| 2026-05-08 17:50 | 49.31014 | 14.01384 | 37145 ft | 470 kts | 8° |
| 2026-05-08 17:51 | 49.37410 | 14.03424 | 37155 ft | 469 kts | 8° |
| 2026-05-08 17:51 | 49.43787 | 14.05470 | 37153 ft | 468 kts | 8° |
| 2026-05-08 17:52 | 49.50125 | 14.07506 | 37152 ft | 467 kts | 8° |
| 2026-05-08 17:53 | 49.59658 | 14.10573 | 37164 ft | 467 kts | 8° |
| 2026-05-08 17:53 | 49.65844 | 14.13661 | 37157 ft | 472 kts | 25° |
| 2026-05-08 17:54 | 49.71387 | 14.19146 | 37157 ft | 474 kts | 32° |
| 2026-05-08 17:54 | 49.76832 | 14.24904 | 37176 ft | 474 kts | 32° |
| 2026-05-08 17:55 | 49.82267 | 14.30677 | 37166 ft | 473 kts | 32° |
| 2026-05-08 17:55 | 49.87658 | 14.36421 | 37165 ft | 473 kts | 32° |
| 2026-05-08 17:56 | 49.93104 | 14.42232 | 37164 ft | 472 kts | 32° |
| 2026-05-08 17:56 | 49.98482 | 14.47987 | 37169 ft | 472 kts | 32° |
| 2026-05-08 17:57 | 50.03884 | 14.53774 | 37162 ft | 471 kts | 32° |
| 2026-05-08 17:57 | 50.09274 | 14.59574 | 37164 ft | 471 kts | 32° |
| 2026-05-08 17:58 | 50.14654 | 14.65391 | 37158 ft | 471 kts | 33° |
| 2026-05-08 17:58 | 50.20029 | 14.71220 | 37158 ft | 470 kts | 33° |
| 2026-05-08 17:59 | 50.25411 | 14.77056 | 37155 ft | 470 kts | 33° |
| 2026-05-08 17:59 | 50.30780 | 14.82885 | 37154 ft | 470 kts | 33° |
| 2026-05-08 18:00 | 50.36159 | 14.88748 | 37155 ft | 470 kts | 33° |
| 2026-05-08 18:00 | 50.44164 | 14.97518 | 37147 ft | 470 kts | 33° |
| 2026-05-08 18:01 | 50.49528 | 15.03419 | 37149 ft | 470 kts | 33° |
| 2026-05-08 18:01 | 50.54873 | 15.09316 | 37102 ft | 469 kts | 33° |
| 2026-05-08 18:02 | 50.57513 | 15.12318 | 36547 ft | 469 kts | 39° |
| 2026-05-08 18:02 | 50.59058 | 15.14697 | 36179 ft | 470 kts | 49° |
| 2026-05-08 18:02 | 50.61445 | 15.20445 | 35385 ft | 470 kts | 59° |
| 2026-05-08 18:02 | 50.63079 | 15.24912 | 34776 ft | 471 kts | 59° |
| 2026-05-08 18:03 | 50.64695 | 15.29395 | 34188 ft | 470 kts | 60° |
| 2026-05-08 18:03 | 50.66300 | 15.33880 | 33480 ft | 470 kts | 60° |
| 2026-05-08 18:03 | 50.67907 | 15.38373 | 32726 ft | 471 kts | 59° |
| 2026-05-08 18:03 | 50.69525 | 15.42887 | 31988 ft | 471 kts | 59° |
| 2026-05-08 18:04 | 50.71134 | 15.47364 | 31452 ft | 468 kts | 59° |
| 2026-05-08 18:04 | 50.72734 | 15.51812 | 30919 ft | 464 kts | 59° |
| 2026-05-08 18:04 | 50.74328 | 15.56247 | 30054 ft | 467 kts | 59° |
| 2026-05-08 18:04 | 50.75940 | 15.60744 | 28973 ft | 474 kts | 59° |
| 2026-05-08 18:05 | 50.77537 | 15.65215 | 28249 ft | 471 kts | 59° |
| 2026-05-08 18:05 | 50.79161 | 15.69773 | 27554 ft | 467 kts | 59° |
| 2026-05-08 18:05 | 50.80747 | 15.74233 | 26925 ft | 463 kts | 59° |
| 2026-05-08 18:05 | 50.82293 | 15.78583 | 26333 ft | 458 kts | 59° |
| 2026-05-08 18:06 | 50.83841 | 15.82941 | 25740 ft | 454 kts | 59° |
| 2026-05-08 18:06 | 50.85357 | 15.87295 | 25165 ft | 450 kts | 63° |
| 2026-05-08 18:06 | 50.86361 | 15.91958 | 24626 ft | 447 kts | 79° |
| 2026-05-08 18:06 | 50.86724 | 15.96832 | 24058 ft | 443 kts | 84° |
| 2026-05-08 18:07 | 50.86995 | 16.01667 | 23454 ft | 440 kts | 85° |
| 2026-05-08 18:07 | 50.87249 | 16.06477 | 22836 ft | 436 kts | 85° |
| 2026-05-08 18:07 | 50.87497 | 16.11245 | 22254 ft | 433 kts | 85° |
| 2026-05-08 18:07 | 50.87745 | 16.15984 | 21704 ft | 429 kts | 85° |
| 2026-05-08 18:08 | 50.87991 | 16.20652 | 21164 ft | 425 kts | 85° |
| 2026-05-08 18:08 | 50.88236 | 16.25301 | 20657 ft | 422 kts | 85° |
| 2026-05-08 18:08 | 50.88479 | 16.29914 | 20174 ft | 419 kts | 85° |
| 2026-05-08 18:08 | 50.88721 | 16.34494 | 19712 ft | 416 kts | 85° |
| 2026-05-08 18:09 | 50.88957 | 16.39015 | 19038 ft | 410 kts | 85° |
| 2026-05-08 18:09 | 50.89189 | 16.43514 | 18542 ft | 408 kts | 85° |
| 2026-05-08 18:09 | 50.89416 | 16.47972 | 18027 ft | 405 kts | 85° |
| 2026-05-08 18:09 | 50.89640 | 16.52395 | 17430 ft | 400 kts | 85° |
| 2026-05-08 18:10 | 50.89862 | 16.56762 | 16706 ft | 396 kts | 85° |
| 2026-05-08 18:10 | 50.90080 | 16.61085 | 15999 ft | 391 kts | 85° |
| 2026-05-08 18:10 | 50.90290 | 16.65361 | 15296 ft | 387 kts | 85° |
| 2026-05-08 18:10 | 50.90494 | 16.69594 | 14607 ft | 383 kts | 85° |
| 2026-05-08 18:11 | 50.90696 | 16.73787 | 13920 ft | 380 kts | 85° |
| 2026-05-08 18:11 | 50.90897 | 16.77942 | 13176 ft | 376 kts | 85° |
| 2026-05-08 18:11 | 50.91097 | 16.82047 | 12481 ft | 371 kts | 85° |
| 2026-05-08 18:11 | 50.91296 | 16.86099 | 11808 ft | 366 kts | 85° |
| 2026-05-08 18:12 | 50.91487 | 16.90039 | 11593 ft | 349 kts | 85° |
| 2026-05-08 18:12 | 50.91665 | 16.93773 | 11463 ft | 331 kts | 85° |
| 2026-05-08 18:12 | 50.91829 | 16.97323 | 11336 ft | 315 kts | 86° |
| 2026-05-08 18:12 | 50.91981 | 17.00689 | 11092 ft | 306 kts | 86° |
| 2026-05-08 18:13 | 50.92132 | 17.04027 | 10700 ft | 302 kts | 86° |
| 2026-05-08 18:13 | 50.92286 | 17.07372 | 10274 ft | 299 kts | 85° |
| 2026-05-08 18:13 | 50.92343 | 17.10599 | 9838 ft | 296 kts | 94° |
| 2026-05-08 18:13 | 50.92030 | 17.13793 | 9461 ft | 289 kts | 105° |
| 2026-05-08 18:14 | 50.91382 | 17.16721 | 9335 ft | 275 kts | 115° |
| 2026-05-08 18:14 | 50.90560 | 17.19370 | 9191 ft | 261 kts | 117° |
| 2026-05-08 18:14 | 50.89785 | 17.21900 | 9021 ft | 250 kts | 112° |
| 2026-05-08 18:14 | 50.89521 | 17.24585 | 8680 ft | 243 kts | 81° |
| 2026-05-08 18:15 | 50.90135 | 17.27015 | 8173 ft | 238 kts | 48° |
| 2026-05-08 18:15 | 50.91363 | 17.28725 | 7618 ft | 235 kts | 30° |
| 2026-05-08 18:15 | 50.92794 | 17.29950 | 7107 ft | 232 kts | 14° |
| 2026-05-08 18:15 | 50.94355 | 17.30033 | 6632 ft | 223 kts | 340° |
| 2026-05-08 18:16 | 50.95746 | 17.29000 | 6151 ft | 222 kts | 328° |
| 2026-05-08 18:16 | 50.97046 | 17.27744 | 5687 ft | 221 kts | 326° |
| 2026-05-08 18:16 | 50.98305 | 17.26393 | 5299 ft | 214 kts | 315° |
| 2026-05-08 18:16 | 50.99151 | 17.24588 | 5186 ft | 199 kts | 296° |
| 2026-05-08 18:17 | 50.99757 | 17.22632 | 4982 ft | 196 kts | 296° |
| 2026-05-08 18:17 | 51.00358 | 17.20687 | 4723 ft | 195 kts | 296° |
| 2026-05-08 18:17 | 51.00958 | 17.18752 | 4451 ft | 194 kts | 296° |
| 2026-05-08 18:17 | 51.01552 | 17.16840 | 4190 ft | 193 kts | 296° |
| 2026-05-08 18:18 | 51.02139 | 17.14944 | 3951 ft | 189 kts | 297° |
| 2026-05-08 18:18 | 51.02715 | 17.13087 | 3674 ft | 186 kts | 297° |
| 2026-05-08 18:18 | 51.03281 | 17.11260 | 3418 ft | 182 kts | 297° |
| 2026-05-08 18:18 | 51.03831 | 17.09481 | 3176 ft | 177 kts | 297° |
| 2026-05-08 18:19 | 51.04367 | 17.07748 | 2931 ft | 173 kts | 298° |
| 2026-05-08 18:19 | 51.04892 | 17.06050 | 2701 ft | 170 kts | 298° |
| 2026-05-08 18:19 | 51.05406 | 17.04385 | 2468 ft | 164 kts | 298° |
| 2026-05-08 18:19 | 51.05894 | 17.02801 | 2246 ft | 155 kts | 298° |
| 2026-05-08 18:20 | 51.06355 | 17.01308 | 2030 ft | 147 kts | 299° |
| 2026-05-08 18:20 | 51.06801 | 16.99862 | 1841 ft | 145 kts | 299° |
| 2026-05-08 18:20 | 51.07242 | 16.98431 | 1651 ft | 143 kts | 299° |
| 2026-05-08 18:20 | 51.07679 | 16.97011 | 1448 ft | 143 kts | 298° |
| 2026-05-08 18:21 | 51.08116 | 16.95593 | 1258 ft | 143 kts | 298° |
| 2026-05-08 18:21 | 51.08551 | 16.94175 | 1053 ft | 142 kts | 297° |
| 2026-05-08 18:21 | 51.08976 | 16.92758 | 832 ft | 140 kts | 298° |
| 2026-05-08 18:21 | 51.09410 | 16.91363 | 662 ft | 141 kts | 298° |
| 2026-05-08 18:22 | 51.09840 | 16.89969 | 465 ft | 140 kts | 298° |
| 2026-05-08 18:22 | 51.10249 | 16.88645 | 404 ft | 120 kts | 296° |
| 2026-05-08 18:22 | 51.10567 | 16.87610 | 398 ft | 73 kts | 296° |
| 2026-05-08 18:22 | 51.10682 | 16.87250 | 403 ft | 15 kts | 316° |
| 2026-05-08 18:23 | 51.10766 | 16.87281 | 402 ft | 14 kts | 26° |
| 2026-05-08 18:23 | 51.10862 | 16.87355 | 403 ft | 17 kts | 26° |
| 2026-05-08 18:23 | 51.10950 | 16.87436 | 403 ft | 11 kts | 61° |
| 2026-05-08 18:23 | 51.10922 | 16.87558 | 401 ft | 13 kts | 116° |
| 2026-05-08 18:24 | 51.10879 | 16.87701 | 403 ft | 16 kts | 117° |
| 2026-05-08 18:24 | 51.10844 | 16.87834 | 403 ft | 7 kts | 76° |
| 2026-05-08 18:24 | 51.10896 | 16.87881 | 402 ft | 7 kts | 25° |
| 2026-05-08 18:24 | 51.10901 | 16.87885 | 403 ft | 0 kts | 26° |